Latest Weather Observations for Perth Airport

IDW60901

Issued at 2:11 pm WST Tuesday 19 January 2021 (issued every 10 minutes, with the page automatically refreshed every 10 minutes)

About weather observations | Map of Perth area stations | Latest observations for Perth area | Other Formats
Station Details ID: 009021 Name: PERTH AIRPORT Lat: -31.93 Lon: 115.98 Height: 15.4 m
Data from the previous 72 hours. | See also: Recent months at Perth Airport
Date/Time
WST
Temp
°C
App
Temp
°C
Dew
Point
°C
Rel
Hum
%
Delta-T
°C
Wind Press
QNH
hPa
Press
MSL
hPa
Rain since
9am
mm
Dir  Spd
km/h
Gust
km/h
Spd
kts
Gust
kts
19/02:00pm 33.3 30.0 12.9 29 12.3 WNW 22 32 12 17 1007.9 1007.8 0.0
19/01:30pm 34.1 30.5 13.0 28 12.7 W 24 28 13 15 1008.0 1007.9 0.0
19/01:00pm 36.1 33.0 12.3 24 14.3 W 20 30 11 16 1008.0 1007.9 0.0
19/12:30pm 35.1 30.8 12.1 25 13.7 W 26 33 14 18 1008.2 1008.1 0.0
19/12:00pm 36.1 33.4 11.7 23 14.6 NW 17 33 9 18 1008.4 1008.3 0.0
19/11:30am 36.4 33.2 9.8 20 15.4 N 17 28 9 15 1008.8 1008.7 0.0
19/11:00am 36.5 32.9 9.9 20 15.5 N 19 32 10 17 1009.3 1009.2 0.0
19/10:30am 35.9 32.0 9.4 20 15.3 N 20 30 11 16 1009.6 1009.5 0.0
19/10:00am 34.3 30.4 8.8 21 14.5 N 19 30 10 16 1009.8 1009.7 0.0
19/09:30am 33.6 29.8 9.0 22 13.9 NNE 19 32 10 17 1010.1 1010.0 0.0
19/09:00am 32.8 28.4 7.6 21 13.9 NNE 20 28 11 15 1010.3 1010.2 0.0
19/08:30am 33.1 29.0 6.4 19 14.5 NNE 17 28 9 15 1010.4 1010.3 0.0
19/08:00am 31.7 29.7 8.7 24 12.9 NNE 9 13 5 7 1010.7 1010.6 0.0
19/07:30am 29.5 28.0 12.0 34 10.2 W 11 13 6 7 1010.6 1010.5 0.0
19/07:00am 28.1 27.4 12.0 36 9.3 WNW 7 11 4 6 1010.5 1010.4 0.0
19/06:30am 25.6 25.1 12.1 43 7.7 ENE 6 7 3 4 1010.3 1010.2 0.0
19/06:00am 25.2 23.3 11.7 43 7.7 NE 13 17 7 9 1010.1 1010.0 0.0
19/05:30am 25.6 23.4 12.1 43 7.7 ENE 15 19 8 10 1010.0 1009.9 0.0
19/05:00am 26.1 23.2 12.2 42 8.0 ENE 19 26 10 14 1009.8 1009.7 0.0
19/04:30am 26.3 23.9 12.7 43 7.9 ENE 17 22 9 12 1009.7 1009.6 0.0
19/04:00am 26.4 24.0 12.5 42 8.1 ENE 17 22 9 12 1009.8 1009.7 0.0
19/03:30am 25.6 23.6 12.8 45 7.4 E 15 19 8 10 1009.8 1009.7 0.0
19/03:00am 26.2 24.2 12.6 43 7.9 ENE 15 19 8 10 1009.9 1009.8 0.0
19/02:30am 25.2 24.0 12.8 46 7.2 NE 11 15 6 8 1010.1 1010.0 0.0
19/02:00am 24.9 22.8 12.5 46 7.1 ENE 15 19 8 10 1010.0 1009.9 0.0
19/01:30am 25.7 23.0 12.9 45 7.4 NE 19 26 10 14 1010.5 1010.4 0.0
19/01:00am 25.7 23.8 12.9 45 7.4 ENE 15 22 8 12 1010.7 1010.6 0.0
19/12:30am 27.4 23.6 11.0 36 9.3 ENE 22 30 12 16 1011.2 1011.1 0.0
19/12:00am 27.4 24.1 11.0 36 9.3 NE 19 26 10 14 1011.4 1011.3 0.0
 
Date/Time
WST
Temp
°C
App
Temp
°C
Dew
Point
°C
Rel
Hum
%
Delta-T
°C
Wind Press
QNH
hPa
Press
MSL
hPa
Rain since
9am
mm
Dir  Spd
km/h
Gust
km/h
Spd
kts
Gust
kts
18/11:30pm 27.5 24.1 10.7 35 9.5 NE 19 24 10 13 1011.4 1011.3 0.0
18/11:00pm 27.2 24.4 11.3 37 9.1 NE 17 20 9 11 1011.5 1011.4 0.0
18/10:30pm 26.9 24.3 10.6 36 9.2 ENE 15 20 8 11 1011.6 1011.5 0.0
18/10:00pm 26.0 23.6 11.4 40 8.3 ENE 15 17 8 9 1011.9 1011.8 0.0
18/09:30pm 26.0 24.2 12.1 42 8.0 ENE 13 20 7 11 1012.0 1011.9 0.0
18/09:00pm 26.6 23.8 12.6 42 8.1 NE 19 24 10 13 1011.9 1011.8 0.0
18/08:30pm 26.5 24.5 13.9 45 7.5 ENE 17 22 9 12 1011.8 1011.7 0.0
18/08:00pm 26.8 24.4 13.9 45 7.7 ENE 19 24 10 13 1011.9 1011.8 0.0
18/07:30pm 26.9 24.2 13.6 44 7.9 NE 20 28 11 15 1012.1 1012.0 0.0
18/07:00pm 27.5 22.6 12.7 40 8.7 NNE 30 37 16 20 1011.8 1011.7 0.0
18/06:30pm 27.8 23.3 13.7 42 8.4 NNE 30 41 16 22 1011.9 1011.8 0.0
18/06:00pm 28.2 23.7 13.7 41 8.6 N 30 39 16 21 1011.8 1011.7 0.0
18/05:30pm 29.4 25.1 13.2 37 9.6 N 28 33 15 18 1011.2 1011.1 0.0
18/05:00pm 31.2 27.7 12.1 31 11.2 N 22 30 12 16 1011.2 1011.1 0.0
18/04:30pm 31.8 27.9 12.1 30 11.6 NNE 24 33 13 18 1011.4 1011.3 0.0
18/04:00pm 33.1 28.3 11.6 27 12.7 NNE 28 35 15 19 1011.3 1011.2 0.0
18/03:30pm 34.2 30.8 11.4 25 13.4 NE 20 33 11 18 1011.4 1011.3 0.0
18/03:00pm 33.4 29.3 11.3 26 13.0 NE 24 37 13 20 1011.4 1011.3 0.0
18/02:30pm 32.9 27.3 11.4 27 12.6 NE 32 41 17 22 1011.8 1011.7 0.0
18/02:00pm 32.4 27.2 11.6 28 12.2 NE 30 44 16 24 1011.8 1011.7 0.0
18/01:30pm 31.8 26.2 11.6 29 11.8 NE 32 46 17 25 1012.1 1012.0 0.0
18/01:00pm 31.5 25.8 11.3 29 11.7 NE 32 41 17 22 1012.7 1012.6 0.0
18/12:30pm 30.7 25.2 10.6 29 11.5 ENE 30 39 16 21 1012.9 1012.8 0.0
18/12:00pm 29.8 24.3 9.3 28 11.4 NNE 28 39 15 21 1013.4 1013.3 0.0
18/11:30am 29.5 24.3 7.4 25 11.9 NE 24 33 13 18 1013.8 1013.7 0.0
18/11:00am 29.3 23.0 4.0 20 12.9 NE 26 35 14 19 1014.1 1014.0 0.0
18/10:30am 29.1 22.2 4.6 21 12.6 NE 30 35 16 19 1014.1 1014.0 0.0
18/10:00am 29.4 22.9 4.8 21 12.7 NNE 28 35 15 19 1014.3 1014.2 0.0
18/09:30am 29.0 21.9 3.8 20 12.8 NE 30 37 16 20 1014.3 1014.2 0.0
18/09:00am 28.6 21.3 2.7 19 12.8 ENE 30 46 16 25 1014.4 1014.3 0.0
18/08:30am 28.5 22.0 2.7 19 12.8 NE 26 39 14 21 1014.8 1014.7 0.0
18/08:00am 27.7 19.9 2.0 19 12.5 NE 32 41 17 22 1014.9 1014.8 0.0
18/07:30am 26.2 20.6 3.5 23 11.2 ENE 22 37 12 20 1014.8 1014.7 0.0
18/07:00am 24.1 16.8 4.5 28 9.7 ENE 32 41 17 22 1015.0 1014.9 0.0
18/06:30am 23.7 16.1 4.1 28 9.6 E 33 41 18 22 1015.0 1014.9 0.0
18/06:00am 23.4 17.1 3.9 28 9.5 ENE 26 33 14 18 1014.6 1014.5 0.0
18/05:30am 23.5 17.4 2.9 26 9.9 E 24 30 13 16 1014.3 1014.2 0.0
18/05:00am 23.8 17.5 3.7 27 9.8 NE 26 35 14 19 1013.9 1013.8 0.0
18/04:30am 24.0 16.9 3.3 26 10.1 ENE 30 41 16 22 1012.9 1012.8 0.0
18/04:00am 24.4 16.6 1.9 23 10.7 E 32 41 17 22 1012.4 1012.3 0.0
18/03:30am 24.5 16.6 0.8 21 11.0 ENE 32 41 17 22 1012.5 1012.4 0.0
18/03:00am 24.9 17.2 -0.3 19 11.5 ENE 30 39 16 21 1012.4 1012.3 0.0
18/02:30am 25.3 17.1 -0.7 18 11.8 E 32 44 17 24 1012.4 1012.3 0.0
18/02:00am 25.5 18.9 -0.5 18 11.9 ENE 24 30 13 16 1012.9 1012.8 0.0
18/01:30am 26.8 20.0 0.5 18 12.4 ENE 26 35 14 19 1012.5 1012.4 0.0
18/01:00am 27.3 20.8 0.1 17 12.8 ENE 24 30 13 16 1012.6 1012.5 0.0
18/12:30am 27.8 21.3 0.5 17 12.9 ENE 24 30 13 16 1012.7 1012.6 0.0
18/12:00am 28.5 22.4 0.3 16 13.4 E 22 - 12 - - 1012.8 -
 
Date/Time
WST
Temp
°C
App
Temp
°C
Dew
Point
°C
Rel
Hum
%
Delta-T
°C
Wind Press
QNH
hPa
Press
MSL
hPa
Rain since
9am
mm
Dir  Spd
km/h
Gust
km/h
Spd
kts
Gust
kts
17/11:30pm 28.5 22.0 0.3 16 13.4 E 24 35 13 19 1012.9 1012.8 0.0
17/11:00pm 28.8 22.3 0.5 16 13.5 E 24 35 13 19 1013.0 1012.9 0.0
17/10:30pm 29.1 22.7 0.7 16 13.6 E 24 30 13 16 1013.1 1013.0 0.0
17/10:00pm 28.7 23.7 1.3 17 13.3 E 17 22 9 12 1013.2 1013.1 0.0
17/09:30pm 28.7 24.6 2.1 18 13.1 E 13 17 7 9 1013.2 1013.1 0.0
17/09:00pm 29.5 25.0 1.9 17 13.6 ESE 15 22 8 12 1013.1 1013.0 0.0
17/08:30pm 28.9 24.6 3.0 19 12.9 ESE 15 19 8 10 1013.1 1013.0 0.0
17/08:00pm 29.6 25.6 2.8 18 13.4 E 13 15 7 8 1013.1 1013.0 0.0
17/07:30pm 30.8 26.5 3.0 17 14.1 E 15 19 8 10 1012.9 1012.8 0.0
17/07:00pm 32.0 27.3 3.1 16 14.7 E 17 20 9 11 1012.8 1012.7 0.0
17/06:30pm 33.0 27.1 2.0 14 15.6 E 22 32 12 17 1012.7 1012.6 0.0
17/06:00pm 34.2 27.2 1.9 13 16.4 E 28 35 15 19 1012.4 1012.3 0.0
17/05:30pm 34.6 28.4 2.2 13 16.5 ENE 24 32 13 17 1012.1 1012.0 0.0
17/05:00pm 34.9 28.4 2.4 13 16.7 ENE 26 35 14 19 1012.2 1012.1 0.0
17/04:30pm 35.3 28.6 3.8 14 16.6 ESE 28 35 15 19 1012.4 1012.3 0.0
17/04:00pm 35.4 29.1 3.9 14 16.6 E 26 35 14 19 1012.8 1012.7 0.0
17/03:30pm 35.0 29.6 4.5 15 16.2 E 22 35 12 19 1012.9 1012.8 0.0
17/03:00pm 35.0 29.2 4.5 15 16.2 E 24 39 13 21 1013.3 1013.2 0.0
17/02:30pm 35.2 29.6 5.6 16 16.0 E 24 35 13 19 1013.6 1013.5 0.0
17/02:00pm 34.9 29.5 4.4 15 16.2 ENE 22 52 12 28 1014.1 1014.0 0.0
17/01:30pm 34.6 28.2 5.1 16 15.8 ENE 28 37 15 20 1014.4 1014.3 0.0
17/01:00pm 34.2 28.1 6.5 18 15.1 E 28 41 15 22 1014.6 1014.5 0.0
17/12:30pm 33.4 25.8 5.9 18 14.8 E 35 54 19 29 1014.8 1014.7 0.0
17/12:00pm 33.1 25.5 5.6 18 14.7 ENE 35 48 19 26 1015.4 1015.3 0.0
17/11:30am 31.1 22.7 5.5 20 13.5 ENE 39 50 21 27 1016.0 1015.9 0.0
17/11:17am 31.2 23.2 5.6 20 13.6 ENE 37 48 20 26 1016.2 1016.1 0.0
17/11:00am 31.3 23.1 6.4 21 13.3 E 39 54 21 29 1016.3 1016.2 0.0
17/10:30am 30.4 21.6 5.6 21 13.1 E 41 52 22 28 1016.3 1016.2 0.0
17/10:00am 29.1 19.3 5.2 22 12.4 E 46 56 25 30 1016.2 1016.1 0.0
17/09:30am 28.2 18.9 5.1 23 11.9 ENE 43 56 23 30 1016.3 1016.2 0.0
17/09:00am 27.3 17.9 5.6 25 11.2 ENE 44 57 24 31 1016.7 1016.6 0.0
17/08:30am 25.6 17.3 6.3 29 10.0 ENE 39 50 21 27 1017.1 1017.0 0.0
17/08:21am 25.0 16.0 6.2 30 9.7 E 43 61 23 33 1017.0 1016.9 0.0
17/08:00am 23.6 14.4 6.4 33 8.8 ENE 44 61 24 33 1017.1 1017.0 0.0
17/07:56am 23.3 14.3 6.6 34 8.6 E 43 61 23 33 1017.1 1017.0 0.0
17/07:30am 22.1 12.6 6.7 37 7.9 ENE 46 61 25 33 1017.1 1017.0 0.0
17/07:00am 20.8 11.8 7.1 41 7.0 ENE 44 57 24 31 1017.0 1016.9 0.0
17/06:38am 20.0 11.6 7.4 44 6.4 ENE 41 59 22 32 1016.8 1016.7 0.0
17/06:30am 19.7 11.3 7.4 45 6.3 E 41 54 22 29 1016.8 1016.7 0.0
17/06:22am 19.6 11.2 7.4 45 6.2 E 41 59 22 32 1016.8 1016.7 0.0
17/06:00am 19.0 10.0 7.4 47 5.9 E 44 59 24 32 1016.6 1016.5 0.0
17/05:30am 18.8 9.9 7.6 48 5.7 E 44 63 24 34 1016.3 1016.2 0.0
17/05:07am 18.8 10.8 7.6 48 5.7 E 39 57 21 31 1015.9 1015.8 0.0
17/05:00am 18.9 11.0 7.7 48 5.7 E 39 54 21 29 1015.7 1015.6 0.0
17/04:30am 19.1 11.9 7.8 48 5.8 E 35 52 19 28 1015.4 1015.3 0.0
17/04:25am 19.1 12.5 7.8 48 5.8 E 32 52 17 28 1015.3 1015.2 0.0
17/04:00am 19.3 11.4 7.7 47 5.9 E 39 52 21 28 1015.1 1015.0 0.0
17/03:50am 19.4 12.6 7.8 47 6.0 E 33 52 18 28 1015.1 1015.0 0.0
17/03:30am 19.6 12.9 8.0 47 6.0 E 33 46 18 25 1014.9 1014.8 0.0
17/03:00am 20.0 12.1 8.0 46 6.2 E 39 52 21 28 1014.8 1014.7 0.0
17/02:32am 20.3 12.4 8.0 45 6.4 E 39 57 21 31 1014.6 1014.5 0.0
17/02:30am 20.3 12.1 8.0 45 6.4 E 41 57 22 31 1014.6 1014.5 0.0
17/02:00am 20.7 14.0 8.0 44 6.6 E 33 57 18 31 1014.9 1014.8 0.0
17/01:32am 21.2 15.4 7.8 42 7.0 E 28 52 15 28 1015.0 1014.9 0.0
17/01:30am 21.3 15.9 7.9 42 7.0 E 26 41 14 22 1015.0 1014.9 0.0
17/01:00am 22.1 14.9 7.5 39 7.6 E 35 56 19 30 1014.9 1014.8 0.0
17/12:30am 22.9 16.1 7.1 36 8.2 E 32 54 17 29 1014.9 1014.8 0.0
17/12:00am 23.5 16.7 6.7 34 8.7 ESE 32 52 17 28 1014.9 1014.8 0.0
 
Date/Time
WST
Temp
°C
App
Temp
°C
Dew
Point
°C
Rel
Hum
%
Delta-T
°C
Wind Press
QNH
hPa
Press
MSL
hPa
Rain since
9am
mm
Dir  Spd
km/h
Gust
km/h
Spd
kts
Gust
kts
16/11:30pm 24.5 17.3 5.8 30 9.5 ESE 33 52 18 28 1014.7 1014.6 0.0
16/11:00pm 26.1 18.4 2.1 21 11.6 ESE 32 50 17 27 1014.5 1014.4 0.0
16/10:30pm 27.3 18.7 0.1 17 12.8 E 35 56 19 30 1014.2 1014.1 0.0
16/10:03pm 27.5 19.3 0.3 17 12.8 ESE 33 56 18 30 1014.0 1013.9 0.0
16/10:00pm 27.4 19.4 0.2 17 12.8 ESE 32 44 17 24 1014.0 1013.9 0.0
16/09:30pm 27.9 20.4 1.4 18 12.8 ESE 30 41 16 22 1013.7 1013.6 0.0
16/09:00pm 28.4 21.4 1.8 18 13.0 ESE 28 37 15 20 1013.6 1013.5 0.0
16/08:30pm 28.9 22.6 3.7 20 12.7 ESE 26 35 14 19 1013.2 1013.1 0.0
16/08:00pm 29.6 23.0 4.3 20 13.0 ESE 28 39 15 21 1012.9 1012.8 0.0
16/07:30pm 30.2 25.2 4.8 20 13.2 ESE 20 33 11 18 1012.7 1012.6 0.0
16/07:00pm 31.1 25.4 4.8 19 13.7 ESE 24 41 13 22 1012.5 1012.4 0.0
16/06:30pm 31.7 25.3 5.3 19 13.9 ESE 28 43 15 23 1012.4 1012.3 0.0
16/06:00pm 32.3 25.6 5.7 19 14.2 E 30 46 16 25 1012.2 1012.1 0.0
16/05:58pm 32.5 26.2 5.9 19 14.3 E 28 46 15 25 1012.2 1012.1 0.0
16/05:30pm 32.7 25.7 6.8 20 14.1 E 33 48 18 26 1012.1 1012.0 0.0
16/05:13pm 33.1 26.2 7.1 20 14.2 E 33 52 18 28 1012.2 1012.1 0.0
16/05:00pm 33.1 26.0 6.4 19 14.5 ESE 33 48 18 26 1012.2 1012.1 0.0
16/04:31pm 33.3 26.4 7.3 20 14.3 ESE 33 52 18 28 1012.1 1012.0 0.0
16/04:30pm 33.4 26.5 7.4 20 14.3 ESE 33 48 18 26 1012.1 1012.0 0.0
16/04:00pm 33.4 25.4 7.4 20 14.3 ESE 39 52 21 28 1012.4 1012.3 0.0
16/03:30pm 33.0 25.6 8.5 22 13.7 ESE 37 56 20 30 1012.6 1012.5 0.0
16/03:00pm 33.0 26.5 9.1 23 13.5 E 33 52 18 28 1013.0 1012.9 0.0
16/02:44pm 32.7 26.2 8.9 23 13.4 E 33 52 18 28 1013.2 1013.1 0.0
16/02:30pm 32.3 25.1 9.2 24 13.0 ESE 37 52 20 28 1013.2 1013.1 0.0

Latest Capital City Observations: Canberra | Sydney | Melbourne | Brisbane | Adelaide | Perth | Hobart | Darwin

Other formats

Comma delimited format used in spreadsheet applications
http://www.bom.gov.au/fwo/IDW60901/IDW60901.94610.axf

JavaScript Object Notation format (JSON) in row-major order
http://www.bom.gov.au/fwo/IDW60901/IDW60901.94610.json

Data quality

Most of these data are generated automatically and are frequently updated. Quality checks on data are not normally performed. It is possible for incorrect values to appear. Refer to information at About Latest Weather Observations and please check the disclaimer before using these data.